Time,TemperatureF,DewpointF,PressureIn,WindDirection,WindDirectionDegrees,WindSpeedMPH,WindSpeedGustMPH,Humidity,HourlyPrecipIn,Conditions,Clouds,dailyrainin,SoftwareType,DateUTC
2013-04-02 00:00:00,44.5,37.4,30.55,ENE,68,6.0,12.0,76,0.00,,---,0.00,VWS V14.01,2013-04-02 05:00:00,
2013-04-02 00:10:00,44.2,36.8,30.55,ENE,68,7.0,13.0,75,0.00,,---,0.00,VWS V14.01,2013-04-02 05:10:00,
2013-04-02 00:20:00,43.9,35.5,30.55,ENE,68,9.0,15.0,72,0.00,,---,0.00,VWS V14.01,2013-04-02 05:20:00,
2013-04-02 00:30:00,44.1,36.0,30.55,ENE,68,6.0,12.0,73,0.00,,---,0.00,VWS V14.01,2013-04-02 05:30:00,
2013-04-02 00:40:00,43.9,35.8,30.55,ENE,68,6.0,12.0,73,0.00,,---,0.00,VWS V14.01,2013-04-02 05:40:00,
2013-04-02 00:50:00,43.8,35.4,30.56,ENE,68,7.0,12.0,72,0.00,,---,0.00,VWS V14.01,2013-04-02 05:50:00,
2013-04-02 01:00:00,43.6,35.2,30.55,ENE,68,8.0,13.0,72,0.00,,---,0.00,VWS V14.01,2013-04-02 06:00:00,
2013-04-02 01:10:00,43.5,35.1,30.55,ENE,68,7.0,13.0,72,0.00,,---,0.00,VWS V14.01,2013-04-02 06:10:00,
2013-04-02 01:20:00,43.3,34.5,30.56,ENE,68,7.0,12.0,71,0.00,,---,0.00,VWS V14.01,2013-04-02 06:20:00,
2013-04-02 01:30:00,43.2,34.1,30.56,ENE,68,9.0,14.0,70,0.00,,---,0.00,VWS V14.01,2013-04-02 06:30:00,
2013-04-02 01:40:00,43.1,33.6,30.56,ENE,68,8.0,15.0,69,0.00,,---,0.00,VWS V14.01,2013-04-02 06:40:00,
2013-04-02 01:50:00,42.6,33.5,30.56,ENE,68,10.0,19.0,70,0.00,,---,0.00,VWS V14.01,2013-04-02 06:50:00,
2013-04-02 02:00:00,42.3,33.6,30.58,ENE,68,7.0,15.0,71,0.00,,---,0.00,VWS V14.01,2013-04-02 07:00:00,
2013-04-02 02:10:00,42.2,33.1,30.58,ENE,68,7.0,16.0,70,0.00,,---,0.00,VWS V14.01,2013-04-02 07:10:00,
2013-04-02 02:20:00,42.2,33.1,30.58,ENE,68,7.0,16.0,70,0.00,,---,0.00,VWS V14.01,2013-04-02 07:20:00,
2013-04-02 02:30:00,42.1,33.0,30.57,ENE,68,8.0,14.0,70,0.00,,---,0.00,VWS V14.01,2013-04-02 07:30:00,
2013-04-02 02:40:00,41.9,32.8,30.57,ENE,68,10.0,18.0,70,0.00,,---,0.00,VWS V14.01,2013-04-02 07:40:00,
2013-04-02 02:50:00,41.8,32.8,30.55,East,90,9.0,14.0,70,0.00,,---,0.00,VWS V14.01,2013-04-02 07:50:00,
2013-04-02 03:00:00,41.8,32.8,30.55,East,90,9.0,16.0,70,0.00,,---,0.00,VWS V14.01,2013-04-02 08:00:00,
2013-04-02 03:10:00,41.6,32.2,30.55,ENE,68,9.0,15.0,69,0.00,,---,0.00,VWS V14.01,2013-04-02 08:10:00,
2013-04-02 03:20:00,41.6,32.6,30.56,ENE,68,8.0,16.0,70,0.00,,---,0.00,VWS V14.01,2013-04-02 08:20:00,
2013-04-02 03:30:00,41.3,32.3,30.55,ENE,68,11.0,20.0,70,0.00,,---,0.00,VWS V14.01,2013-04-02 08:30:00,
2013-04-02 03:40:00,41.2,32.5,30.55,ENE,68,8.0,14.0,71,0.00,,---,0.00,VWS V14.01,2013-04-02 08:40:00,
2013-04-02 03:50:00,41.1,32.4,30.57,ENE,68,8.0,15.0,71,0.00,,---,0.00,VWS V14.01,2013-04-02 08:50:00,
2013-04-02 04:00:00,41.1,32.8,30.56,ENE,68,9.0,14.0,72,0.00,,---,0.00,VWS V14.01,2013-04-02 09:00:00,
2013-04-02 04:10:00,41.1,32.8,30.56,ENE,68,10.0,15.0,72,0.00,,---,0.00,VWS V14.01,2013-04-02 09:10:00,
2013-04-02 04:20:00,40.8,33.2,30.57,ENE,68,9.0,15.0,74,0.00,,---,0.00,VWS V14.01,2013-04-02 09:20:00,
2013-04-02 04:30:00,40.6,33.6,30.57,ENE,68,7.0,14.0,76,0.01,,---,0.01,VWS V14.01,2013-04-02 09:30:00,
2013-04-02 04:40:00,40.2,33.9,30.57,ENE,68,9.0,20.0,78,0.03,,---,0.03,VWS V14.01,2013-04-02 09:40:00,
2013-04-02 04:50:00,39.8,34.1,30.56,ENE,68,8.0,14.0,80,0.03,,---,0.03,VWS V14.01,2013-04-02 09:50:00,
2013-04-02 05:00:00,39.6,34.3,30.59,ENE,68,5.0,12.0,81,0.03,,---,0.03,VWS V14.01,2013-04-02 10:00:00,
2013-04-02 05:10:00,39.5,34.5,30.59,ENE,68,8.0,16.0,82,0.03,,---,0.03,VWS V14.01,2013-04-02 10:10:00,
2013-04-02 05:20:00,39.3,34.6,30.57,ENE,68,10.0,17.0,83,0.03,,---,0.03,VWS V14.01,2013-04-02 10:20:00,
2013-04-02 05:30:00,39.2,34.5,30.58,ENE,68,9.0,14.0,83,0.03,,---,0.03,VWS V14.01,2013-04-02 10:30:00,
2013-04-02 05:40:00,39.3,34.6,30.58,ENE,68,7.0,15.0,83,0.02,,---,0.03,VWS V14.01,2013-04-02 10:40:00,
2013-04-02 05:50:00,39.1,34.4,30.58,ENE,68,9.0,14.0,83,0.00,,---,0.03,VWS V14.01,2013-04-02 10:50:00,
2013-04-02 06:00:00,39.2,34.5,30.59,ENE,68,9.0,16.0,83,0.00,,---,0.03,VWS V14.01,2013-04-02 11:00:00,
2013-04-02 06:10:00,38.9,34.2,30.59,ENE,68,9.0,14.0,83,0.00,,---,0.03,VWS V14.01,2013-04-02 11:10:00,
2013-04-02 06:20:00,38.8,33.8,30.60,NE,45,8.0,15.0,82,0.00,,---,0.03,VWS V14.01,2013-04-02 11:20:00,
2013-04-02 06:30:00,38.6,33.6,30.58,ENE,68,11.0,18.0,82,0.00,,---,0.03,VWS V14.01,2013-04-02 11:30:00,
2013-04-02 06:40:00,38.6,33.6,30.58,ENE,68,11.0,18.0,82,0.00,,---,0.03,VWS V14.01,2013-04-02 11:40:00,
2013-04-02 06:50:00,38.6,33.6,30.60,ENE,68,9.0,15.0,82,0.00,,---,0.03,VWS V14.01,2013-04-02 11:50:00,
2013-04-02 07:00:00,38.6,33.6,30.62,ENE,68,8.0,13.0,82,0.01,,---,0.04,VWS V14.01,2013-04-02 12:00:00,
2013-04-02 07:10:00,38.6,33.6,30.62,ENE,68,7.0,13.0,82,0.01,,---,0.04,VWS V14.01,2013-04-02 12:10:00,
2013-04-02 07:20:00,38.6,33.9,30.62,ENE,68,8.0,15.0,83,0.01,,---,0.04,VWS V14.01,2013-04-02 12:20:00,
2013-04-02 07:30:00,38.6,33.9,30.64,ENE,68,6.0,12.0,83,0.01,,---,0.04,VWS V14.01,2013-04-02 12:30:00,
2013-04-02 07:40:00,38.6,34.2,30.64,ENE,68,7.0,11.0,84,0.01,,---,0.04,VWS V14.01,2013-04-02 12:40:00,
2013-04-02 07:50:00,38.6,34.2,30.64,ENE,68,8.0,17.0,84,0.01,,---,0.04,VWS V14.01,2013-04-02 12:50:00,
2013-04-02 08:00:00,38.5,33.8,30.64,ENE,68,8.0,15.0,83,0.01,,---,0.04,VWS V14.01,2013-04-02 13:00:00,
2013-04-02 08:10:00,38.3,33.6,30.64,ENE,68,8.0,13.0,83,0.00,,---,0.04,VWS V14.01,2013-04-02 13:10:00,
2013-04-02 08:20:00,38.3,33.6,30.64,ENE,68,7.0,14.0,83,0.00,,---,0.04,VWS V14.01,2013-04-02 13:20:00,
2013-04-02 08:30:00,38.2,33.5,30.67,ENE,68,7.0,15.0,83,0.01,,---,0.05,VWS V14.01,2013-04-02 13:30:00,
2013-04-02 08:40:00,38.0,33.3,30.67,ENE,68,7.0,15.0,83,0.01,,---,0.05,VWS V14.01,2013-04-02 13:40:00,
2013-04-02 08:50:00,38.0,33.6,30.67,ENE,68,7.0,13.0,84,0.01,,---,0.05,VWS V14.01,2013-04-02 13:50:00,
2013-04-02 09:00:00,37.9,33.5,30.66,ENE,68,9.0,15.0,84,0.01,,---,0.05,VWS V14.01,2013-04-02 14:00:00,
2013-04-02 09:10:00,37.9,33.5,30.66,ENE,68,8.0,16.0,84,0.01,,---,0.05,VWS V14.01,2013-04-02 14:10:00,
2013-04-02 09:20:00,37.9,33.5,30.66,ENE,68,9.0,15.0,84,0.01,,---,0.05,VWS V14.01,2013-04-02 14:20:00,
2013-04-02 09:30:00,37.8,33.4,30.67,ENE,68,10.0,17.0,84,0.02,,---,0.06,VWS V14.01,2013-04-02 14:30:00,
2013-04-02 09:40:00,37.5,33.4,30.67,ENE,68,9.0,17.0,85,0.01,,---,0.06,VWS V14.01,2013-04-02 14:40:00,
2013-04-02 09:50:00,37.3,33.2,30.69,ENE,68,8.0,15.0,85,0.02,,---,0.07,VWS V14.01,2013-04-02 14:50:00,
2013-04-02 10:00:00,37.2,33.1,30.68,ENE,68,9.0,16.0,85,0.03,,---,0.08,VWS V14.01,2013-04-02 15:00:00,
2013-04-02 10:10:00,37.2,33.4,30.68,East,90,11.0,16.0,86,0.04,,---,0.09,VWS V14.01,2013-04-02 15:10:00,
2013-04-02 10:20:00,37.2,33.4,30.67,ENE,68,9.0,16.0,86,0.06,,---,0.11,VWS V14.01,2013-04-02 15:20:00,
2013-04-02 10:30:00,37.2,33.7,30.67,ENE,68,9.0,16.0,87,0.08,,---,0.13,VWS V14.01,2013-04-02 15:30:00,
2013-04-02 10:40:00,37.2,33.7,30.67,East,90,11.0,17.0,87,0.07,,---,0.13,VWS V14.01,2013-04-02 15:40:00,
2013-04-02 10:50:00,37.2,33.7,30.66,East,90,10.0,17.0,87,0.08,,---,0.14,VWS V14.01,2013-04-02 15:50:00,
2013-04-02 11:00:00,37.2,34.0,30.66,East,90,10.0,15.0,88,0.08,,---,0.15,VWS V14.01,2013-04-02 16:00:00,
2013-04-02 11:10:00,37.2,34.0,30.66,East,90,10.0,16.0,88,0.08,,---,0.16,VWS V14.01,2013-04-02 16:10:00,
2013-04-02 11:20:00,37.3,34.1,30.66,East,90,9.0,15.0,88,0.08,,---,0.17,VWS V14.01,2013-04-02 16:20:00,
2013-04-02 11:30:00,37.5,34.6,30.66,East,90,9.0,16.0,89,0.07,,---,0.18,VWS V14.01,2013-04-02 16:30:00,
2013-04-02 11:40:00,37.6,34.7,30.66,East,90,9.0,15.0,89,0.05,,---,0.18,VWS V14.01,2013-04-02 16:40:00,
2013-04-02 11:50:00,37.8,34.9,30.66,East,90,9.0,14.0,89,0.05,,---,0.18,VWS V14.01,2013-04-02 16:50:00,
2013-04-02 12:00:00,37.8,34.9,30.65,East,90,11.0,16.0,89,0.04,,---,0.18,VWS V14.01,2013-04-02 17:00:00,
2013-04-02 12:10:00,37.9,35.0,30.65,East,90,9.0,16.0,89,0.04,,---,0.19,VWS V14.01,2013-04-02 17:10:00,
2013-04-02 12:20:00,38.0,35.3,30.66,East,90,7.0,12.0,90,0.03,,---,0.19,VWS V14.01,2013-04-02 17:20:00,
2013-04-02 12:30:00,38.0,35.3,30.65,East,90,9.0,16.0,90,0.02,,---,0.19,VWS V14.01,2013-04-02 17:30:00,
2013-04-02 12:40:00,38.2,35.5,30.65,East,90,8.0,13.0,90,0.01,,---,0.19,VWS V14.01,2013-04-02 17:40:00,
2013-04-02 12:50:00,38.3,35.6,30.65,East,90,8.0,13.0,90,0.02,,---,0.20,VWS V14.01,2013-04-02 17:50:00,
2013-04-02 13:00:00,38.5,35.8,30.65,East,90,8.0,14.0,90,0.02,,---,0.20,VWS V14.01,2013-04-02 18:00:00,
2013-04-02 13:10:00,38.3,35.6,30.65,East,90,10.0,15.0,90,0.03,,---,0.21,VWS V14.01,2013-04-02 18:10:00,
2013-04-02 13:20:00,38.3,35.6,30.65,East,90,9.0,16.0,90,0.02,,---,0.21,VWS V14.01,2013-04-02 18:20:00,
2013-04-02 13:30:00,38.6,35.9,30.65,East,90,9.0,15.0,90,0.04,,---,0.23,VWS V14.01,2013-04-02 18:30:00,
2013-04-02 13:40:00,38.6,35.9,30.65,East,90,10.0,15.0,90,0.04,,---,0.23,VWS V14.01,2013-04-02 18:40:00,
2013-04-02 13:50:00,38.8,36.1,30.65,East,90,8.0,13.0,90,0.04,,---,0.23,VWS V14.01,2013-04-02 18:50:00,
2013-04-02 14:00:00,38.9,36.2,30.65,East,90,7.0,14.0,90,0.04,,---,0.24,VWS V14.01,2013-04-02 19:00:00,
2013-04-02 14:10:00,39.2,36.5,30.65,East,90,6.0,10.0,90,0.04,,---,0.24,VWS V14.01,2013-04-02 19:10:00,
2013-04-02 14:20:00,39.2,36.5,30.65,ENE,68,6.0,11.0,90,0.03,,---,0.24,VWS V14.01,2013-04-02 19:20:00,
2013-04-02 14:30:00,39.2,36.5,30.65,ENE,68,8.0,13.0,90,0.04,,---,0.25,VWS V14.01,2013-04-02 19:30:00,
2013-04-02 14:40:00,39.2,36.5,30.65,ENE,68,8.0,14.0,90,0.02,,---,0.25,VWS V14.01,2013-04-02 19:40:00,
2013-04-02 14:50:00,39.1,36.4,30.65,ENE,68,8.0,13.0,90,0.02,,---,0.25,VWS V14.01,2013-04-02 19:50:00,
2013-04-02 15:00:00,39.3,36.6,30.63,East,90,8.0,13.0,90,0.03,,---,0.26,VWS V14.01,2013-04-02 20:00:00,
2013-04-02 15:10:00,39.2,36.5,30.63,East,90,10.0,15.0,90,0.02,,---,0.26,VWS V14.01,2013-04-02 20:10:00,
2013-04-02 15:20:00,39.5,37.1,30.63,East,90,7.0,12.0,91,0.03,,---,0.27,VWS V14.01,2013-04-02 20:20:00,
2013-04-02 15:30:00,39.6,37.2,30.63,East,90,8.0,12.0,91,0.03,,---,0.27,VWS V14.01,2013-04-02 20:30:00,
2013-04-02 15:40:00,39.6,36.9,30.63,East,90,9.0,14.0,90,0.02,,---,0.27,VWS V14.01,2013-04-02 20:40:00,
2013-04-02 15:50:00,39.3,36.6,30.62,East,90,11.0,18.0,90,0.03,,---,0.28,VWS V14.01,2013-04-02 20:50:00,
2013-04-02 16:00:00,39.3,36.6,30.62,East,90,9.0,15.0,90,0.03,,---,0.28,VWS V14.01,2013-04-02 21:00:00,
2013-04-02 16:10:00,39.3,36.6,30.62,East,90,11.0,18.0,90,0.03,,---,0.29,VWS V14.01,2013-04-02 21:10:00,
2013-04-02 16:20:00,39.3,36.6,30.61,East,90,12.0,17.0,90,0.03,,---,0.29,VWS V14.01,2013-04-02 21:20:00,
2013-04-02 16:30:00,39.5,36.8,30.60,ENE,68,12.0,19.0,90,0.02,,---,0.29,VWS V14.01,2013-04-02 21:30:00,
2013-04-02 16:40:00,39.5,36.8,30.60,East,90,12.0,18.0,90,0.02,,---,0.29,VWS V14.01,2013-04-02 21:40:00,
2013-04-02 16:50:00,39.5,36.8,30.60,East,90,11.0,17.0,90,0.02,,---,0.29,VWS V14.01,2013-04-02 21:50:00,
2013-04-02 17:00:00,39.5,36.8,30.60,East,90,11.0,18.0,90,0.01,,---,0.29,VWS V14.01,2013-04-02 22:00:00,
2013-04-02 17:10:00,39.3,36.6,30.60,ENE,68,10.0,16.0,90,0.01,,---,0.29,VWS V14.01,2013-04-02 22:10:00,
2013-04-02 17:20:00,39.2,36.5,30.60,ENE,68,12.0,18.0,90,0.00,,---,0.29,VWS V14.01,2013-04-02 22:20:00,
2013-04-02 17:30:00,39.1,36.4,30.60,ENE,68,11.0,17.0,90,0.00,,---,0.29,VWS V14.01,2013-04-02 22:30:00,
2013-04-02 17:40:00,39.1,36.4,30.60,East,90,11.0,20.0,90,0.00,,---,0.29,VWS V14.01,2013-04-02 22:40:00,
2013-04-02 17:50:00,38.9,36.2,30.60,ENE,68,10.0,17.0,90,0.01,,---,0.30,VWS V14.01,2013-04-02 22:50:00,
2013-04-02 18:00:00,38.8,36.1,30.60,ENE,68,10.0,16.0,90,0.02,,---,0.31,VWS V14.01,2013-04-02 23:00:00,
2013-04-02 18:10:00,38.8,36.1,30.60,ENE,68,8.0,15.0,90,0.03,,---,0.32,VWS V14.01,2013-04-02 23:10:00,
2013-04-02 18:20:00,38.6,35.9,30.62,ENE,68,8.0,15.0,90,0.03,,---,0.32,VWS V14.01,2013-04-02 23:20:00,
2013-04-02 18:30:00,38.3,35.6,30.62,ENE,68,11.0,18.0,90,0.03,,---,0.32,VWS V14.01,2013-04-02 23:30:00,
2013-04-02 18:40:00,38.2,35.5,30.62,ENE,68,10.0,16.0,90,0.03,,---,0.32,VWS V14.01,2013-04-02 23:40:00,
2013-04-02 18:50:00,38.0,35.3,30.63,ENE,68,10.0,15.0,90,0.03,,---,0.32,VWS V14.01,2013-04-02 23:50:00,
2013-04-02 19:00:00,37.9,35.2,30.63,ENE,68,11.0,17.0,90,0.02,,---,0.32,VWS V14.01,2013-04-03 00:00:00,
2013-04-02 19:10:00,37.9,35.2,30.63,ENE,68,9.0,16.0,90,0.01,,---,0.32,VWS V14.01,2013-04-03 00:10:00,
2013-04-02 19:20:00,37.8,35.1,30.63,ENE,68,9.0,15.0,90,0.01,,---,0.33,VWS V14.01,2013-04-03 00:20:00,
2013-04-02 19:30:00,37.8,35.1,30.64,ENE,68,10.0,16.0,90,0.01,,---,0.33,VWS V14.01,2013-04-03 00:30:00,
2013-04-02 19:40:00,37.8,35.1,30.64,ENE,68,7.0,12.0,90,0.02,,---,0.34,VWS V14.01,2013-04-03 00:40:00,
2013-04-02 19:50:00,37.9,35.2,30.62,East,90,8.0,13.0,90,0.03,,---,0.35,VWS V14.01,2013-04-03 00:50:00,
2013-04-02 20:00:00,37.9,35.2,30.61,ENE,68,11.0,17.0,90,0.03,,---,0.35,VWS V14.01,2013-04-03 01:00:00,
2013-04-02 20:10:00,37.9,35.5,30.61,ENE,68,9.0,18.0,91,0.03,,---,0.35,VWS V14.01,2013-04-03 01:10:00,
2013-04-02 20:20:00,37.8,35.4,30.61,ENE,68,10.0,16.0,91,0.03,,---,0.35,VWS V14.01,2013-04-03 01:20:00,
2013-04-02 20:30:00,37.8,35.4,30.62,East,90,9.0,14.0,91,0.02,,---,0.35,VWS V14.01,2013-04-03 01:30:00,
2013-04-02 20:40:00,37.8,35.4,30.62,East,90,10.0,15.0,91,0.02,,---,0.35,VWS V14.01,2013-04-03 01:40:00,
2013-04-02 20:50:00,37.6,35.2,30.61,East,90,9.0,17.0,91,0.01,,---,0.35,VWS V14.01,2013-04-03 01:50:00,
2013-04-02 21:00:00,37.3,34.6,30.62,East,90,11.0,17.0,90,0.00,,---,0.35,VWS V14.01,2013-04-03 02:00:00,
2013-04-02 21:10:00,37.3,34.6,30.62,East,90,10.0,17.0,90,0.00,,---,0.35,VWS V14.01,2013-04-03 02:10:00,
2013-04-02 21:20:00,37.5,34.8,30.63,ENE,68,8.0,14.0,90,0.00,,---,0.35,VWS V14.01,2013-04-03 02:20:00,
2013-04-02 21:30:00,37.2,34.5,30.63,ENE,68,9.0,17.0,90,0.00,,---,0.35,VWS V14.01,2013-04-03 02:30:00,
2013-04-02 21:40:00,37.0,34.3,30.63,ENE,68,9.0,15.0,90,0.00,,---,0.35,VWS V14.01,2013-04-03 02:40:00,
2013-04-02 21:50:00,36.9,34.2,30.65,ENE,68,7.0,12.0,90,0.00,,---,0.35,VWS V14.01,2013-04-03 02:50:00,
2013-04-02 22:00:00,36.8,34.2,30.65,ENE,68,9.0,17.0,90,0.00,,---,0.35,VWS V14.01,2013-04-03 03:00:00,
2013-04-02 22:10:00,36.8,34.2,30.65,ENE,68,9.0,16.0,90,0.00,,---,0.35,VWS V14.01,2013-04-03 03:10:00,
2013-04-02 22:20:00,36.6,34.0,30.64,East,90,11.0,17.0,90,0.00,,---,0.35,VWS V14.01,2013-04-03 03:20:00,
2013-04-02 22:30:00,36.6,33.7,30.65,East,90,11.0,17.0,89,0.00,,---,0.35,VWS V14.01,2013-04-03 03:30:00,
2013-04-02 22:40:00,36.5,33.6,30.65,East,90,10.0,15.0,89,0.00,,---,0.35,VWS V14.01,2013-04-03 03:40:00,
2013-04-02 22:50:00,36.5,33.3,30.65,East,90,8.0,14.0,88,0.00,,---,0.35,VWS V14.01,2013-04-03 03:50:00,
2013-04-02 23:00:00,36.5,33.3,30.66,ENE,68,8.0,13.0,88,0.00,,---,0.35,VWS V14.01,2013-04-03 04:00:00,
2013-04-02 23:10:00,36.5,33.0,30.66,ENE,68,7.0,12.0,87,0.00,,---,0.35,VWS V14.01,2013-04-03 04:10:00,
2013-04-02 23:20:00,36.3,32.8,30.65,ENE,68,8.0,15.0,87,0.00,,---,0.35,VWS V14.01,2013-04-03 04:20:00,
2013-04-02 23:30:00,36.0,32.5,30.64,ENE,68,9.0,14.0,87,0.00,,---,0.35,VWS V14.01,2013-04-03 04:30:00,
2013-04-02 23:40:00,36.0,32.2,30.64,ENE,68,8.0,14.0,86,0.00,,---,0.35,VWS V14.01,2013-04-03 04:40:00,
2013-04-02 23:50:00,35.9,32.1,30.63,ENE,68,9.0,14.0,86,0.00,,---,0.35,VWS V14.01,2013-04-03 04:50:00,